sensor_id;sensor_type;location;lat;lon;timestamp;temperature;humidity
19665;DHT22;9980;51.020;7.772;2022-08-19T00:02:02;19.00;91.70
19665;DHT22;9980;51.020;7.772;2022-08-19T00:04:32;19.00;91.60
19665;DHT22;9980;51.020;7.772;2022-08-19T00:07:05;19.00;91.90
19665;DHT22;9980;51.020;7.772;2022-08-19T00:09:33;19.00;92.00
19665;DHT22;9980;51.020;7.772;2022-08-19T00:12:00;18.90;92.00
19665;DHT22;9980;51.020;7.772;2022-08-19T00:14:29;19.00;92.10
19665;DHT22;9980;51.020;7.772;2022-08-19T00:16:58;18.90;92.50
19665;DHT22;9980;51.020;7.772;2022-08-19T00:19:25;18.90;92.30
19665;DHT22;9980;51.020;7.772;2022-08-19T00:21:56;18.90;92.20
19665;DHT22;9980;51.020;7.772;2022-08-19T00:24:23;18.90;92.10
19665;DHT22;9980;51.020;7.772;2022-08-19T00:26:52;18.90;92.10
19665;DHT22;9980;51.020;7.772;2022-08-19T00:29:20;18.80;92.30
19665;DHT22;9980;51.020;7.772;2022-08-19T00:31:49;18.80;92.40
19665;DHT22;9980;51.020;7.772;2022-08-19T00:34:21;18.80;92.40
19665;DHT22;9980;51.020;7.772;2022-08-19T00:36:49;18.80;92.50
19665;DHT22;9980;51.020;7.772;2022-08-19T00:39:16;18.70;92.40
19665;DHT22;9980;51.020;7.772;2022-08-19T00:41:44;18.70;92.40
19665;DHT22;9980;51.020;7.772;2022-08-19T00:44:24;18.70;92.50
19665;DHT22;9980;51.020;7.772;2022-08-19T00:46:56;18.70;92.60
19665;DHT22;9980;51.020;7.772;2022-08-19T00:49:46;18.70;92.60
19665;DHT22;9980;51.020;7.772;2022-08-19T00:52:22;18.70;92.60
19665;DHT22;9980;51.020;7.772;2022-08-19T00:54:56;18.70;92.50
19665;DHT22;9980;51.020;7.772;2022-08-19T00:57:31;18.60;92.50
19665;DHT22;9980;51.020;7.772;2022-08-19T01:00:04;18.60;92.40
19665;DHT22;9980;51.020;7.772;2022-08-19T01:02:33;18.60;92.50
19665;DHT22;9980;51.020;7.772;2022-08-19T01:05:04;18.60;92.60
19665;DHT22;9980;51.020;7.772;2022-08-19T01:07:35;18.60;92.60
19665;DHT22;9980;51.020;7.772;2022-08-19T01:10:07;18.60;92.60
19665;DHT22;9980;51.020;7.772;2022-08-19T01:12:38;18.50;92.60
19665;DHT22;9980;51.020;7.772;2022-08-19T01:15:07;18.50;92.80
19665;DHT22;9980;51.020;7.772;2022-08-19T01:17:38;18.50;92.80
19665;DHT22;9980;51.020;7.772;2022-08-19T01:20:13;18.50;92.90
19665;DHT22;9980;51.020;7.772;2022-08-19T01:25:15;18.50;92.90
19665;DHT22;9980;51.020;7.772;2022-08-19T01:27:50;18.50;92.90
19665;DHT22;9980;51.020;7.772;2022-08-19T01:30:31;18.40;93.00
19665;DHT22;9980;51.020;7.772;2022-08-19T01:33:00;18.40;92.90
19665;DHT22;9980;51.020;7.772;2022-08-19T01:35:29;18.40;92.80
19665;DHT22;9980;51.020;7.772;2022-08-19T01:38:04;18.40;92.80
19665;DHT22;9980;51.020;7.772;2022-08-19T01:40:38;18.40;92.90
19665;DHT22;9980;51.020;7.772;2022-08-19T01:43:06;18.40;93.10
19665;DHT22;9980;51.020;7.772;2022-08-19T01:45:35;18.40;92.90
19665;DHT22;9980;51.020;7.772;2022-08-19T01:48:04;18.40;92.90
19665;DHT22;9980;51.020;7.772;2022-08-19T01:50:33;18.40;93.00
19665;DHT22;9980;51.020;7.772;2022-08-19T01:53:03;18.30;92.90
19665;DHT22;9980;51.020;7.772;2022-08-19T01:55:36;18.30;93.10
19665;DHT22;9980;51.020;7.772;2022-08-19T01:58:14;18.30;93.20
19665;DHT22;9980;51.020;7.772;2022-08-19T02:00:46;18.30;93.00
19665;DHT22;9980;51.020;7.772;2022-08-19T02:03:14;18.30;92.90
19665;DHT22;9980;51.020;7.772;2022-08-19T02:05:44;18.30;93.10
19665;DHT22;9980;51.020;7.772;2022-08-19T02:08:12;18.30;93.40
19665;DHT22;9980;51.020;7.772;2022-08-19T02:10:41;18.30;93.30
19665;DHT22;9980;51.020;7.772;2022-08-19T02:13:10;18.30;93.20
19665;DHT22;9980;51.020;7.772;2022-08-19T02:15:38;18.20;93.30
19665;DHT22;9980;51.020;7.772;2022-08-19T02:18:05;18.20;93.30
19665;DHT22;9980;51.020;7.772;2022-08-19T02:20:34;18.20;93.30
19665;DHT22;9980;51.020;7.772;2022-08-19T02:23:02;18.20;93.40
19665;DHT22;9980;51.020;7.772;2022-08-19T02:25:30;18.20;93.40
19665;DHT22;9980;51.020;7.772;2022-08-19T02:27:57;18.20;93.30
19665;DHT22;9980;51.020;7.772;2022-08-19T02:30:24;18.20;93.30
19665;DHT22;9980;51.020;7.772;2022-08-19T02:32:52;18.20;93.40
19665;DHT22;9980;51.020;7.772;2022-08-19T02:35:20;18.20;93.20
19665;DHT22;9980;51.020;7.772;2022-08-19T02:37:48;18.10;93.20
19665;DHT22;9980;51.020;7.772;2022-08-19T02:40:33;18.10;93.20
19665;DHT22;9980;51.020;7.772;2022-08-19T02:43:06;18.10;93.30
19665;DHT22;9980;51.020;7.772;2022-08-19T02:45:36;18.10;93.50
19665;DHT22;9980;51.020;7.772;2022-08-19T02:48:07;18.10;93.40
19665;DHT22;9980;51.020;7.772;2022-08-19T02:50:48;18.00;93.40
19665;DHT22;9980;51.020;7.772;2022-08-19T02:53:24;18.00;93.30
19665;DHT22;9980;51.020;7.772;2022-08-19T02:55:53;18.00;93.30
19665;DHT22;9980;51.020;7.772;2022-08-19T02:58:22;18.00;93.30
19665;DHT22;9980;51.020;7.772;2022-08-19T03:00:55;18.00;93.30
19665;DHT22;9980;51.020;7.772;2022-08-19T03:03:23;18.00;93.20
19665;DHT22;9980;51.020;7.772;2022-08-19T03:05:50;17.90;93.20
19665;DHT22;9980;51.020;7.772;2022-08-19T03:08:24;17.90;93.20
19665;DHT22;9980;51.020;7.772;2022-08-19T03:10:52;17.90;93.20
19665;DHT22;9980;51.020;7.772;2022-08-19T03:13:21;17.90;93.10
19665;DHT22;9980;51.020;7.772;2022-08-19T03:15:49;17.90;93.00
19665;DHT22;9980;51.020;7.772;2022-08-19T03:18:17;17.90;93.10
19665;DHT22;9980;51.020;7.772;2022-08-19T03:20:49;17.90;93.40
19665;DHT22;9980;51.020;7.772;2022-08-19T03:23:18;17.80;93.40
19665;DHT22;9980;51.020;7.772;2022-08-19T03:25:49;17.80;93.50
19665;DHT22;9980;51.020;7.772;2022-08-19T03:28:37;17.80;93.60
19665;DHT22;9980;51.020;7.772;2022-08-19T03:31:08;17.80;93.40
19665;DHT22;9980;51.020;7.772;2022-08-19T03:33:58;17.80;93.50
19665;DHT22;9980;51.020;7.772;2022-08-19T03:36:26;17.70;93.40
19665;DHT22;9980;51.020;7.772;2022-08-19T03:38:58;17.70;93.60
19665;DHT22;9980;51.020;7.772;2022-08-19T03:41:29;17.70;93.50
19665;DHT22;9980;51.020;7.772;2022-08-19T03:44:19;17.70;93.50
19665;DHT22;9980;51.020;7.772;2022-08-19T03:46:57;17.70;93.50
19665;DHT22;9980;51.020;7.772;2022-08-19T03:49:28;17.60;93.50
19665;DHT22;9980;51.020;7.772;2022-08-19T03:51:58;17.60;93.50
19665;DHT22;9980;51.020;7.772;2022-08-19T03:54:27;17.60;93.40
19665;DHT22;9980;51.020;7.772;2022-08-19T03:56:56;17.60;93.40
19665;DHT22;9980;51.020;7.772;2022-08-19T03:59:27;17.50;93.40
19665;DHT22;9980;51.020;7.772;2022-08-19T04:01:58;17.50;93.50
19665;DHT22;9980;51.020;7.772;2022-08-19T04:04:27;17.50;93.50
19665;DHT22;9980;51.020;7.772;2022-08-19T04:06:57;17.50;93.50
19665;DHT22;9980;51.020;7.772;2022-08-19T04:09:25;17.50;93.40
19665;DHT22;9980;51.020;7.772;2022-08-19T04:11:55;17.50;93.40
19665;DHT22;9980;51.020;7.772;2022-08-19T04:14:26;17.40;93.40
19665;DHT22;9980;51.020;7.772;2022-08-19T04:16:58;17.40;93.50
19665;DHT22;9980;51.020;7.772;2022-08-19T04:19:26;17.40;93.50
19665;DHT22;9980;51.020;7.772;2022-08-19T04:21:55;17.40;93.50
19665;DHT22;9980;51.020;7.772;2022-08-19T04:24:23;17.40;93.50
19665;DHT22;9980;51.020;7.772;2022-08-19T04:26:50;17.40;93.60
19665;DHT22;9980;51.020;7.772;2022-08-19T04:29:20;17.30;93.60
19665;DHT22;9980;51.020;7.772;2022-08-19T04:31:52;17.30;93.60
19665;DHT22;9980;51.020;7.772;2022-08-19T04:34:25;17.20;93.60
19665;DHT22;9980;51.020;7.772;2022-08-19T04:36:54;17.20;93.60
19665;DHT22;9980;51.020;7.772;2022-08-19T04:39:29;17.20;93.60
19665;DHT22;9980;51.020;7.772;2022-08-19T04:42:17;17.20;93.80
19665;DHT22;9980;51.020;7.772;2022-08-19T04:45:13;17.20;93.80
19665;DHT22;9980;51.020;7.772;2022-08-19T04:47:44;17.20;93.80
19665;DHT22;9980;51.020;7.772;2022-08-19T04:50:24;17.10;93.80
19665;DHT22;9980;51.020;7.772;2022-08-19T04:52:52;17.20;93.90
19665;DHT22;9980;51.020;7.772;2022-08-19T04:55:20;17.10;94.00
19665;DHT22;9980;51.020;7.772;2022-08-19T04:57:47;17.10;94.50
19665;DHT22;9980;51.020;7.772;2022-08-19T05:00:15;17.10;94.20
19665;DHT22;9980;51.020;7.772;2022-08-19T05:02:42;17.10;94.30
19665;DHT22;9980;51.020;7.772;2022-08-19T05:05:09;17.10;94.20
19665;DHT22;9980;51.020;7.772;2022-08-19T05:07:37;17.20;94.50
19665;DHT22;9980;51.020;7.772;2022-08-19T05:10:05;17.20;94.60
19665;DHT22;9980;51.020;7.772;2022-08-19T05:12:33;17.20;94.80
19665;DHT22;9980;51.020;7.772;2022-08-19T05:15:02;17.20;95.00
19665;DHT22;9980;51.020;7.772;2022-08-19T05:17:31;17.30;95.10
19665;DHT22;9980;51.020;7.772;2022-08-19T05:20:06;17.30;95.40
19665;DHT22;9980;51.020;7.772;2022-08-19T05:22:52;17.40;95.60
19665;DHT22;9980;51.020;7.772;2022-08-19T05:25:20;17.50;95.70
19665;DHT22;9980;51.020;7.772;2022-08-19T05:27:48;17.50;95.70
19665;DHT22;9980;51.020;7.772;2022-08-19T05:30:16;17.60;95.90
19665;DHT22;9980;51.020;7.772;2022-08-19T05:32:44;17.60;96.10
19665;DHT22;9980;51.020;7.772;2022-08-19T05:35:11;17.70;96.30
19665;DHT22;9980;51.020;7.772;2022-08-19T05:37:39;17.80;96.50
19665;DHT22;9980;51.020;7.772;2022-08-19T05:40:09;17.90;96.70
19665;DHT22;9980;51.020;7.772;2022-08-19T05:42:37;18.00;96.90
19665;DHT22;9980;51.020;7.772;2022-08-19T05:45:05;18.10;96.80
19665;DHT22;9980;51.020;7.772;2022-08-19T05:47:32;18.20;96.80
19665;DHT22;9980;51.020;7.772;2022-08-19T05:49:59;18.30;96.70
19665;DHT22;9980;51.020;7.772;2022-08-19T05:52:31;18.40;96.70
19665;DHT22;9980;51.020;7.772;2022-08-19T05:54:59;18.50;97.00
19665;DHT22;9980;51.020;7.772;2022-08-19T05:57:26;18.70;96.90
19665;DHT22;9980;51.020;7.772;2022-08-19T05:59:55;18.80;96.50
19665;DHT22;9980;51.020;7.772;2022-08-19T06:02:26;18.90;96.70
19665;DHT22;9980;51.020;7.772;2022-08-19T06:04:54;19.00;97.00
19665;DHT22;9980;51.020;7.772;2022-08-19T06:07:22;19.20;97.10
19665;DHT22;9980;51.020;7.772;2022-08-19T06:09:49;19.30;97.00
19665;DHT22;9980;51.020;7.772;2022-08-19T06:12:30;19.50;96.70
19665;DHT22;9980;51.020;7.772;2022-08-19T06:15:10;19.60;96.50
19665;DHT22;9980;51.020;7.772;2022-08-19T06:17:38;19.80;96.40
19665;DHT22;9980;51.020;7.772;2022-08-19T06:20:08;19.90;96.30
19665;DHT22;9980;51.020;7.772;2022-08-19T06:22:41;20.00;96.30
19665;DHT22;9980;51.020;7.772;2022-08-19T06:25:12;20.20;96.40
19665;DHT22;9980;51.020;7.772;2022-08-19T06:27:40;20.30;96.10
19665;DHT22;9980;51.020;7.772;2022-08-19T06:30:28;20.50;96.10
19665;DHT22;9980;51.020;7.772;2022-08-19T06:32:55;20.60;96.00
19665;DHT22;9980;51.020;7.772;2022-08-19T06:35:22;20.70;96.10
19665;DHT22;9980;51.020;7.772;2022-08-19T06:37:49;20.80;96.40
19665;DHT22;9980;51.020;7.772;2022-08-19T06:40:17;20.90;96.00
19665;DHT22;9980;51.020;7.772;2022-08-19T06:42:44;21.00;96.30
19665;DHT22;9980;51.020;7.772;2022-08-19T06:45:22;21.20;96.50
19665;DHT22;9980;51.020;7.772;2022-08-19T06:47:51;21.30;96.40
19665;DHT22;9980;51.020;7.772;2022-08-19T06:50:21;21.40;96.40
19665;DHT22;9980;51.020;7.772;2022-08-19T06:52:50;21.50;96.20
19665;DHT22;9980;51.020;7.772;2022-08-19T06:55:18;21.70;96.10
19665;DHT22;9980;51.020;7.772;2022-08-19T06:57:46;21.80;96.00
19665;DHT22;9980;51.020;7.772;2022-08-19T07:00:15;21.90;95.90
19665;DHT22;9980;51.020;7.772;2022-08-19T07:02:43;22.00;95.70
19665;DHT22;9980;51.020;7.772;2022-08-19T07:05:21;22.10;95.50
19665;DHT22;9980;51.020;7.772;2022-08-19T07:07:48;22.20;95.60
19665;DHT22;9980;51.020;7.772;2022-08-19T07:10:17;22.30;95.50
19665;DHT22;9980;51.020;7.772;2022-08-19T07:12:45;22.40;95.50
19665;DHT22;9980;51.020;7.772;2022-08-19T07:15:13;22.50;95.30
19665;DHT22;9980;51.020;7.772;2022-08-19T07:17:40;22.60;95.10
19665;DHT22;9980;51.020;7.772;2022-08-19T07:20:08;22.60;95.00
19665;DHT22;9980;51.020;7.772;2022-08-19T07:22:37;22.80;94.90
19665;DHT22;9980;51.020;7.772;2022-08-19T07:25:07;22.80;94.80
19665;DHT22;9980;51.020;7.772;2022-08-19T07:27:36;22.90;94.60
19665;DHT22;9980;51.020;7.772;2022-08-19T07:30:06;23.00;94.60
19665;DHT22;9980;51.020;7.772;2022-08-19T07:32:38;23.10;94.60
19665;DHT22;9980;51.020;7.772;2022-08-19T07:35:06;23.10;94.50
19665;DHT22;9980;51.020;7.772;2022-08-19T07:37:35;23.20;94.40
19665;DHT22;9980;51.020;7.772;2022-08-19T07:40:05;23.40;94.40
19665;DHT22;9980;51.020;7.772;2022-08-19T07:42:34;23.50;94.50
19665;DHT22;9980;51.020;7.772;2022-08-19T07:45:00;23.60;94.20
19665;DHT22;9980;51.020;7.772;2022-08-19T07:47:27;23.70;94.10
19665;DHT22;9980;51.020;7.772;2022-08-19T07:50:15;23.80;93.90
19665;DHT22;9980;51.020;7.772;2022-08-19T07:52:44;24.00;93.90
19665;DHT22;9980;51.020;7.772;2022-08-19T07:55:17;24.00;93.80
19665;DHT22;9980;51.020;7.772;2022-08-19T07:58:11;24.20;93.70
19665;DHT22;9980;51.020;7.772;2022-08-19T08:00:42;24.20;93.30
19665;DHT22;9980;51.020;7.772;2022-08-19T08:03:10;24.30;93.20
19665;DHT22;9980;51.020;7.772;2022-08-19T08:05:38;24.50;93.80
19665;DHT22;9980;51.020;7.772;2022-08-19T08:08:24;24.60;93.60
19665;DHT22;9980;51.020;7.772;2022-08-19T08:11:16;24.80;93.10
19665;DHT22;9980;51.020;7.772;2022-08-19T08:13:46;25.10;93.10
19665;DHT22;9980;51.020;7.772;2022-08-19T08:16:30;25.30;92.40
19665;DHT22;9980;51.020;7.772;2022-08-19T08:19:00;25.40;92.00
19665;DHT22;9980;51.020;7.772;2022-08-19T08:21:27;25.60;91.90
19665;DHT22;9980;51.020;7.772;2022-08-19T08:23:54;25.70;91.40
19665;DHT22;9980;51.020;7.772;2022-08-19T08:26:22;25.80;91.30
19665;DHT22;9980;51.020;7.772;2022-08-19T08:28:52;26.00;91.20
19665;DHT22;9980;51.020;7.772;2022-08-19T08:31:19;26.10;90.90
19665;DHT22;9980;51.020;7.772;2022-08-19T08:33:47;26.20;90.00
19665;DHT22;9980;51.020;7.772;2022-08-19T08:36:15;26.30;89.60
19665;DHT22;9980;51.020;7.772;2022-08-19T08:38:43;26.40;88.70
19665;DHT22;9980;51.020;7.772;2022-08-19T08:41:31;26.50;88.40
19665;DHT22;9980;51.020;7.772;2022-08-19T08:44:40;26.60;87.70
19665;DHT22;9980;51.020;7.772;2022-08-19T08:47:26;26.70;86.60
19665;DHT22;9980;51.020;7.772;2022-08-19T08:50:03;26.90;87.40
19665;DHT22;9980;51.020;7.772;2022-08-19T08:52:37;27.00;86.80
19665;DHT22;9980;51.020;7.772;2022-08-19T08:55:24;27.10;85.10
19665;DHT22;9980;51.020;7.772;2022-08-19T08:58:16;27.20;83.90
19665;DHT22;9980;51.020;7.772;2022-08-19T09:00:48;27.30;84.10
19665;DHT22;9980;51.020;7.772;2022-08-19T09:03:19;27.40;83.40
19665;DHT22;9980;51.020;7.772;2022-08-19T09:09:17;27.50;81.60
19665;DHT22;9980;51.020;7.772;2022-08-19T09:15:11;27.70;80.60
19665;DHT22;9980;51.020;7.772;2022-08-19T09:17:40;27.90;80.00
19665;DHT22;9980;51.020;7.772;2022-08-19T09:22:40;28.10;79.60
19665;DHT22;9980;51.020;7.772;2022-08-19T09:25:14;28.20;79.40
19665;DHT22;9980;51.020;7.772;2022-08-19T09:27:54;28.30;78.00
19665;DHT22;9980;51.020;7.772;2022-08-19T09:30:31;28.40;78.40
19665;DHT22;9980;51.020;7.772;2022-08-19T09:33:01;28.60;77.90
19665;DHT22;9980;51.020;7.772;2022-08-19T09:35:29;28.60;77.80
19665;DHT22;9980;51.020;7.772;2022-08-19T09:37:58;28.70;76.00
19665;DHT22;9980;51.020;7.772;2022-08-19T09:40:29;28.80;75.30
19665;DHT22;9980;51.020;7.772;2022-08-19T09:43:04;28.90;73.40
19665;DHT22;9980;51.020;7.772;2022-08-19T09:45:39;29.00;73.40
19665;DHT22;9980;51.020;7.772;2022-08-19T09:48:05;29.00;74.50
19665;DHT22;9980;51.020;7.772;2022-08-19T09:50:35;29.10;73.40
19665;DHT22;9980;51.020;7.772;2022-08-19T09:53:17;29.10;73.10
19665;DHT22;9980;51.020;7.772;2022-08-19T09:55:45;29.20;75.00
19665;DHT22;9980;51.020;7.772;2022-08-19T09:58:12;29.20;74.90
19665;DHT22;9980;51.020;7.772;2022-08-19T10:00:39;29.30;76.40
19665;DHT22;9980;51.020;7.772;2022-08-19T10:03:06;29.40;74.90
19665;DHT22;9980;51.020;7.772;2022-08-19T10:05:34;29.40;73.80
19665;DHT22;9980;51.020;7.772;2022-08-19T10:08:30;29.50;71.60
19665;DHT22;9980;51.020;7.772;2022-08-19T10:11:00;29.50;71.60
19665;DHT22;9980;51.020;7.772;2022-08-19T10:13:48;29.60;71.90
19665;DHT22;9980;51.020;7.772;2022-08-19T10:16:19;29.70;72.60
19665;DHT22;9980;51.020;7.772;2022-08-19T10:18:52;29.80;70.60
19665;DHT22;9980;51.020;7.772;2022-08-19T10:21:28;29.80;70.10
19665;DHT22;9980;51.020;7.772;2022-08-19T10:24:00;29.90;68.30
19665;DHT22;9980;51.020;7.772;2022-08-19T10:26:33;29.90;67.90
19665;DHT22;9980;51.020;7.772;2022-08-19T10:29:04;29.90;67.50
19665;DHT22;9980;51.020;7.772;2022-08-19T10:31:35;29.90;67.10
19665;DHT22;9980;51.020;7.772;2022-08-19T10:34:22;30.00;67.10
19665;DHT22;9980;51.020;7.772;2022-08-19T10:36:55;30.00;68.00
19665;DHT22;9980;51.020;7.772;2022-08-19T10:39:32;30.00;68.00
19665;DHT22;9980;51.020;7.772;2022-08-19T10:42:09;30.10;66.40
19665;DHT22;9980;51.020;7.772;2022-08-19T10:44:37;30.20;66.40
19665;DHT22;9980;51.020;7.772;2022-08-19T10:47:04;30.20;67.50
19665;DHT22;9980;51.020;7.772;2022-08-19T10:49:53;30.30;68.00
19665;DHT22;9980;51.020;7.772;2022-08-19T10:52:45;30.40;65.60
19665;DHT22;9980;51.020;7.772;2022-08-19T10:55:19;30.40;64.20
19665;DHT22;9980;51.020;7.772;2022-08-19T10:58:11;30.50;63.90
19665;DHT22;9980;51.020;7.772;2022-08-19T11:00:41;30.50;63.30
19665;DHT22;9980;51.020;7.772;2022-08-19T11:03:10;30.40;63.50
19665;DHT22;9980;51.020;7.772;2022-08-19T11:05:37;30.40;64.50
19665;DHT22;9980;51.020;7.772;2022-08-19T11:08:07;30.40;63.80
19665;DHT22;9980;51.020;7.772;2022-08-19T11:10:51;30.50;63.30
19665;DHT22;9980;51.020;7.772;2022-08-19T11:13:28;30.50;63.50
19665;DHT22;9980;51.020;7.772;2022-08-19T11:15:58;30.50;63.10
19665;DHT22;9980;51.020;7.772;2022-08-19T11:18:35;30.50;63.20
19665;DHT22;9980;51.020;7.772;2022-08-19T11:21:13;30.60;62.90
19665;DHT22;9980;51.020;7.772;2022-08-19T11:23:47;30.60;61.20
19665;DHT22;9980;51.020;7.772;2022-08-19T11:26:16;30.60;60.90
19665;DHT22;9980;51.020;7.772;2022-08-19T11:28:44;30.60;60.40
19665;DHT22;9980;51.020;7.772;2022-08-19T11:31:19;30.50;59.70
19665;DHT22;9980;51.020;7.772;2022-08-19T11:34:00;30.50;60.30
19665;DHT22;9980;51.020;7.772;2022-08-19T11:36:31;30.50;58.50
19665;DHT22;9980;51.020;7.772;2022-08-19T11:39:02;30.60;60.00
19665;DHT22;9980;51.020;7.772;2022-08-19T11:41:32;30.60;59.00
19665;DHT22;9980;51.020;7.772;2022-08-19T11:44:03;30.70;58.80
19665;DHT22;9980;51.020;7.772;2022-08-19T11:46:31;30.80;58.80
19665;DHT22;9980;51.020;7.772;2022-08-19T11:48:59;30.80;59.10
19665;DHT22;9980;51.020;7.772;2022-08-19T11:51:27;30.90;59.00
19665;DHT22;9980;51.020;7.772;2022-08-19T11:53:56;30.90;59.10
19665;DHT22;9980;51.020;7.772;2022-08-19T11:56:26;30.90;59.20
19665;DHT22;9980;51.020;7.772;2022-08-19T11:58:55;31.00;58.90
19665;DHT22;9980;51.020;7.772;2022-08-19T12:01:25;31.10;58.70
19665;DHT22;9980;51.020;7.772;2022-08-19T12:03:54;31.10;57.00
19665;DHT22;9980;51.020;7.772;2022-08-19T12:06:29;31.20;56.60
19665;DHT22;9980;51.020;7.772;2022-08-19T12:09:02;31.20;55.40
19665;DHT22;9980;51.020;7.772;2022-08-19T12:11:32;31.30;55.30
19665;DHT22;9980;51.020;7.772;2022-08-19T12:14:00;31.30;55.30
19665;DHT22;9980;51.020;7.772;2022-08-19T12:16:29;31.30;54.20
19665;DHT22;9980;51.020;7.772;2022-08-19T12:18:59;31.40;54.70
19665;DHT22;9980;51.020;7.772;2022-08-19T12:21:32;31.40;55.30
19665;DHT22;9980;51.020;7.772;2022-08-19T12:24:03;31.50;55.30
19665;DHT22;9980;51.020;7.772;2022-08-19T12:26:33;31.60;55.90
19665;DHT22;9980;51.020;7.772;2022-08-19T12:29:19;31.60;55.50
19665;DHT22;9980;51.020;7.772;2022-08-19T12:31:50;31.60;56.10
19665;DHT22;9980;51.020;7.772;2022-08-19T12:34:18;31.60;56.20
19665;DHT22;9980;51.020;7.772;2022-08-19T12:36:46;31.60;55.70
19665;DHT22;9980;51.020;7.772;2022-08-19T12:39:15;31.60;54.80
19665;DHT22;9980;51.020;7.772;2022-08-19T12:41:42;31.60;55.40
19665;DHT22;9980;51.020;7.772;2022-08-19T12:44:21;31.50;54.90
19665;DHT22;9980;51.020;7.772;2022-08-19T12:46:56;31.50;55.70
19665;DHT22;9980;51.020;7.772;2022-08-19T12:49:23;31.40;55.90
19665;DHT22;9980;51.020;7.772;2022-08-19T12:52:11;31.40;55.20
19665;DHT22;9980;51.020;7.772;2022-08-19T12:54:47;31.30;55.20
19665;DHT22;9980;51.020;7.772;2022-08-19T12:57:18;31.20;55.10
19665;DHT22;9980;51.020;7.772;2022-08-19T12:59:45;31.20;55.10
19665;DHT22;9980;51.020;7.772;2022-08-19T13:02:12;31.10;55.50
19665;DHT22;9980;51.020;7.772;2022-08-19T13:04:39;31.00;55.30
19665;DHT22;9980;51.020;7.772;2022-08-19T13:07:07;30.80;55.70
19665;DHT22;9980;51.020;7.772;2022-08-19T13:09:35;30.80;56.30
19665;DHT22;9980;51.020;7.772;2022-08-19T13:12:03;30.80;56.10
19665;DHT22;9980;51.020;7.772;2022-08-19T13:14:34;30.70;56.30
19665;DHT22;9980;51.020;7.772;2022-08-19T13:17:02;30.70;56.60
19665;DHT22;9980;51.020;7.772;2022-08-19T13:19:30;30.80;56.90
19665;DHT22;9980;51.020;7.772;2022-08-19T13:21:58;30.80;57.30
19665;DHT22;9980;51.020;7.772;2022-08-19T13:24:26;30.90;56.70
19665;DHT22;9980;51.020;7.772;2022-08-19T13:27:02;31.00;56.00
19665;DHT22;9980;51.020;7.772;2022-08-19T13:29:30;31.10;56.10
19665;DHT22;9980;51.020;7.772;2022-08-19T13:32:15;31.20;55.10
19665;DHT22;9980;51.020;7.772;2022-08-19T13:35:03;31.30;56.00
19665;DHT22;9980;51.020;7.772;2022-08-19T13:37:31;31.30;54.40
19665;DHT22;9980;51.020;7.772;2022-08-19T13:40:16;31.40;54.20
19665;DHT22;9980;51.020;7.772;2022-08-19T13:42:53;31.50;54.30
19665;DHT22;9980;51.020;7.772;2022-08-19T13:45:23;31.50;53.60
19665;DHT22;9980;51.020;7.772;2022-08-19T13:47:54;31.60;53.70
19665;DHT22;9980;51.020;7.772;2022-08-19T13:50:28;31.60;53.70
19665;DHT22;9980;51.020;7.772;2022-08-19T13:53:00;31.70;53.40
19665;DHT22;9980;51.020;7.772;2022-08-19T13:55:28;31.70;53.50
19665;DHT22;9980;51.020;7.772;2022-08-19T13:57:59;31.80;52.90
19665;DHT22;9980;51.020;7.772;2022-08-19T14:00:33;31.80;52.60
19665;DHT22;9980;51.020;7.772;2022-08-19T14:03:03;31.90;52.60
19665;DHT22;9980;51.020;7.772;2022-08-19T14:05:35;32.00;51.30
19665;DHT22;9980;51.020;7.772;2022-08-19T14:08:03;32.10;51.30
19665;DHT22;9980;51.020;7.772;2022-08-19T14:10:31;32.10;51.60
19665;DHT22;9980;51.020;7.772;2022-08-19T14:13:02;32.20;51.80
19665;DHT22;9980;51.020;7.772;2022-08-19T14:15:30;32.20;50.10
19665;DHT22;9980;51.020;7.772;2022-08-19T14:18:01;32.30;51.00
19665;DHT22;9980;51.020;7.772;2022-08-19T14:20:29;32.50;50.40
19665;DHT22;9980;51.020;7.772;2022-08-19T14:22:56;32.50;50.30
19665;DHT22;9980;51.020;7.772;2022-08-19T14:25:25;32.50;50.20
19665;DHT22;9980;51.020;7.772;2022-08-19T14:27:54;32.60;50.40
19665;DHT22;9980;51.020;7.772;2022-08-19T14:30:31;32.60;50.70
19665;DHT22;9980;51.020;7.772;2022-08-19T14:33:00;32.60;51.00
19665;DHT22;9980;51.020;7.772;2022-08-19T14:35:31;32.60;50.30
19665;DHT22;9980;51.020;7.772;2022-08-19T14:38:04;32.60;50.90
19665;DHT22;9980;51.020;7.772;2022-08-19T14:40:32;32.60;50.60
19665;DHT22;9980;51.020;7.772;2022-08-19T14:43:03;32.60;50.50
19665;DHT22;9980;51.020;7.772;2022-08-19T14:45:37;32.60;50.60
19665;DHT22;9980;51.020;7.772;2022-08-19T14:48:07;32.60;51.50
19665;DHT22;9980;51.020;7.772;2022-08-19T14:50:45;32.60;51.00
19665;DHT22;9980;51.020;7.772;2022-08-19T14:53:12;32.60;51.30
19665;DHT22;9980;51.020;7.772;2022-08-19T14:55:44;32.60;51.80
19665;DHT22;9980;51.020;7.772;2022-08-19T14:58:12;32.60;51.20
19665;DHT22;9980;51.020;7.772;2022-08-19T15:00:57;32.60;51.20
19665;DHT22;9980;51.020;7.772;2022-08-19T15:03:26;32.60;50.50
19665;DHT22;9980;51.020;7.772;2022-08-19T15:05:54;32.60;50.50
19665;DHT22;9980;51.020;7.772;2022-08-19T15:08:24;32.60;50.50
19665;DHT22;9980;51.020;7.772;2022-08-19T15:10:53;32.60;50.60
19665;DHT22;9980;51.020;7.772;2022-08-19T15:13:20;32.50;50.80
19665;DHT22;9980;51.020;7.772;2022-08-19T15:15:48;32.60;49.60
19665;DHT22;9980;51.020;7.772;2022-08-19T15:18:15;32.50;49.00
19665;DHT22;9980;51.020;7.772;2022-08-19T15:20:42;32.60;49.70
19665;DHT22;9980;51.020;7.772;2022-08-19T15:23:14;32.60;49.80
19665;DHT22;9980;51.020;7.772;2022-08-19T15:25:42;32.50;49.30
19665;DHT22;9980;51.020;7.772;2022-08-19T15:28:11;32.50;49.20
19665;DHT22;9980;51.020;7.772;2022-08-19T15:30:39;32.50;49.70
19665;DHT22;9980;51.020;7.772;2022-08-19T15:33:07;32.50;49.90
19665;DHT22;9980;51.020;7.772;2022-08-19T15:35:34;32.50;48.80
19665;DHT22;9980;51.020;7.772;2022-08-19T15:38:01;32.50;48.10
19665;DHT22;9980;51.020;7.772;2022-08-19T15:40:29;32.50;48.40
19665;DHT22;9980;51.020;7.772;2022-08-19T15:42:56;32.50;48.90
19665;DHT22;9980;51.020;7.772;2022-08-19T15:45:24;32.50;48.50
19665;DHT22;9980;51.020;7.772;2022-08-19T15:47:59;32.50;49.70
19665;DHT22;9980;51.020;7.772;2022-08-19T15:50:27;32.50;49.20
19665;DHT22;9980;51.020;7.772;2022-08-19T15:53:00;32.50;48.30
19665;DHT22;9980;51.020;7.772;2022-08-19T15:55:40;32.50;49.00
19665;DHT22;9980;51.020;7.772;2022-08-19T15:58:12;32.50;49.30
19665;DHT22;9980;51.020;7.772;2022-08-19T16:01:00;32.50;49.00
19665;DHT22;9980;51.020;7.772;2022-08-19T16:03:55;32.40;48.70
19665;DHT22;9980;51.020;7.772;2022-08-19T16:06:51;32.30;48.50
19665;DHT22;9980;51.020;7.772;2022-08-19T16:09:20;32.20;48.40
19665;DHT22;9980;51.020;7.772;2022-08-19T16:11:58;32.00;47.90
19665;DHT22;9980;51.020;7.772;2022-08-19T16:14:31;31.80;48.60
19665;DHT22;9980;51.020;7.772;2022-08-19T16:16:59;31.80;49.40
19665;DHT22;9980;51.020;7.772;2022-08-19T16:19:27;31.60;49.40
19665;DHT22;9980;51.020;7.772;2022-08-19T16:21:55;31.50;50.20
19665;DHT22;9980;51.020;7.772;2022-08-19T16:24:25;31.40;50.50
19665;DHT22;9980;51.020;7.772;2022-08-19T16:26:53;31.30;50.00